Aeroporto :
LOGIN :

Iscrizione | Disclaimer

   EN    FR    IT 

 










Sommario :    VFR   VFR Marginale   IFR   IFR Intensivo   IFR Molto Intensivo
Visibilità : 
Base nubi : 
>= 8 km
>= 3000ft
5 / 8 km
1000 / 3000 ft
1500m / 5 km
500 / 1000 ft
800 / 1500m
200 / 500 ft
< 800m
< 200 ft
Simboli :   Temporali  Nebbia  Neve Forte  Precipitazioni Forti  Vento > 20 kt
SIGMETs :   Varie  Temporali  Ghiacco  Turbolenza  Onda orograficha  Ceneri Vulcaniche






- Altitudine del aeroporto : 645 ft
- Codice IATA : DLE


LFGJ - Dole Tavaux

ULTIMO METAR :
  • 051500Z AUTO 22010KT 190V250 9999 FEW037 BKN068 BKN078 22/14 Q1011 NOSIG

METARs OBSOLETI :
  • 051430Z AUTO 23012KT 9999 FEW034 BKN064 OVC080 22/15 Q1011 NOSIG
  • 051400Z AUTO 21012KT 9999 BKN031 BKN045 BKN052 21/16 Q1011 NOSIG
  • 051330Z AUTO 23011KT 200V260 9999 SCT030/// BKN035/// BKN043/// ///TCU 21/16 Q1012 BECMG SCT020 BKN035
  • 051300Z AUTO 23012KT 9999 FEW022/// OVC036/// ///TCU 20/16 Q1012 BECMG SCT020 BKN035
  • 051230Z AUTO 19007KT 9999 BKN038/// BKN046/// OVC058/// ///TCU 18/16 Q1012 BECMG SCT020 BKN035
  • 051200Z AUTO 22011KT 7000 FEW011 BKN035 OVC041 17/16 Q1012 NOSIG

TAF TAF LFGJ
Valido dal 05 a 15 ore il 06 a 00 ore UTC


051400Z 0515/0524 22010KT 9999 FEW035 BKN050
BECMG 0517/0519 16005KT
TEMPO 0521/0524 -RA



MetMap, La meteo Aeronautica in un colpo d'occhio ! - Copyright ORBIFLY Dicembre 2007 - Disclaimer

ORBIFLY MET'MAP TEAM :

Programmazione e sviluppo : Alexandra Zaïnal
Concezione : Baudouin d'Aumeries
Aiuto per la programmazione : Marc-Olivier Méhu
Supporto tecnico e logistico : Manuel Goepfert
Aiuto per la traduzione : Arnaldo La Scala

Contatto : metmap@orbifly.com




FONTI E CREDITI :

   NOAA